createdAt,value
2019-05-19T00:04:43.471Z,59954.95
2019-05-19T00:09:39.620Z,59935.69
2019-05-19T00:14:35.651Z,59867.67
2019-05-19T00:19:31.548Z,59882.54
2019-05-19T00:24:27.475Z,59844.72
2019-05-19T00:29:23.396Z,59864.12
2019-05-19T00:34:19.420Z,59791.03
2019-05-19T00:39:16.014Z,59920.05
2019-05-19T00:44:12.190Z,59902.81
2019-05-19T00:49:08.107Z,59873.92
2019-05-19T00:54:04.029Z,59871.32
2019-05-19T00:59:00.059Z,59911.73
2019-05-19T01:03:55.985Z,59965.54
2019-05-19T01:08:56.656Z,59897.20
2019-05-19T01:13:52.683Z,59914.98
2019-05-19T01:18:48.612Z,59942.58
2019-05-19T01:23:44.641Z,59900.01
2019-05-19T01:28:40.560Z,60007.99
2019-05-19T01:33:36.584Z,59951.49
2019-05-19T01:38:43.962Z,59929.63
2019-05-19T01:43:39.901Z,59956.58
2019-05-19T01:48:35.835Z,59981.70
2019-05-19T01:53:31.758Z,59941.86
2019-05-19T01:58:27.689Z,59959.84
2019-05-19T02:03:23.620Z,59939.29
2019-05-19T02:08:21.035Z,59877.46
2019-05-19T02:13:17.073Z,59921.24
2019-05-19T02:18:13.399Z,59861.87
2019-05-19T02:23:09.430Z,59923.37
2019-05-19T02:28:05.362Z,59872.68
2019-05-19T02:33:01.318Z,59857.27
2019-05-19T02:37:57.767Z,59801.85
2019-05-19T02:42:53.796Z,59808.11
2019-05-19T02:47:50.837Z,59827.00
2019-05-19T02:52:48.717Z,59816.39
2019-05-19T02:57:45.010Z,59776.50
2019-05-19T03:02:40.952Z,59763.46
2019-05-19T03:07:36.896Z,59764.42
2019-05-19T03:12:32.825Z,59764.42
2019-05-19T03:17:28.764Z,59766.55
2019-05-19T03:22:24.693Z,59697.04
2019-05-19T03:27:20.622Z,59691.82
2019-05-19T03:32:21.213Z,59688.61
2019-05-19T03:37:17.250Z,59731.22
2019-05-19T03:42:13.194Z,59776.06
2019-05-19T03:47:09.130Z,59697.01
2019-05-19T03:52:05.164Z,59635.29
2019-05-19T03:57:01.098Z,59638.29
2019-05-19T04:01:57.036Z,59667.74
2019-05-19T04:06:52.932Z,59702.34
2019-05-19T04:11:48.874Z,59666.32
2019-05-19T04:16:44.807Z,59648.32
2019-05-19T04:21:48.637Z,59662.79
2019-05-19T04:26:39.302Z,59667.63
2019-05-19T04:31:35.233Z,59684.09
2019-05-19T04:36:31.157Z,59688.82
2019-05-19T04:41:27.089Z,59703.50
2019-05-19T04:46:23.021Z,59725.69
2019-05-19T04:51:19.042Z,59746.62
2019-05-19T04:56:14.973Z,59797.96
2019-05-19T05:01:10.904Z,59853.09
2019-05-19T05:06:06.828Z,59875.74
2019-05-19T05:11:03.030Z,59937.39
2019-05-19T05:15:58.952Z,60049.09
2019-05-19T05:20:54.873Z,60132.30
2019-05-19T05:25:50.803Z,60181.82
2019-05-19T05:30:46.729Z,60195.62
2019-05-19T05:35:42.750Z,60191.44
2019-05-19T05:40:38.673Z,60258.91
2019-05-19T05:45:34.706Z,60304.93
2019-05-19T05:50:30.640Z,60362.68
2019-05-19T05:55:26.571Z,60425.61
2019-05-19T06:00:22.707Z,60504.01
2019-05-19T06:05:18.635Z,60500.67
2019-05-19T06:10:14.870Z,60524.22
2019-05-19T06:15:10.900Z,60575.65
2019-05-19T06:20:07.573Z,60610.10
2019-05-19T06:25:05.025Z,60635.86
2019-05-19T06:30:01.152Z,60681.00
2019-05-19T06:34:57.079Z,60512.84
2019-05-19T06:39:55.006Z,60613.23
2019-05-19T06:44:51.789Z,60615.86
2019-05-19T06:49:47.951Z,60635.96
2019-05-19T06:54:43.877Z,60677.54
2019-05-19T06:59:39.806Z,60634.30
2019-05-19T07:04:35.746Z,60666.39
2019-05-19T07:09:32.272Z,60912.25
2019-05-19T07:14:28.374Z,61049.64
2019-05-19T07:19:24.301Z,61091.35
2019-05-19T07:24:20.240Z,60959.61
2019-05-19T07:29:16.296Z,60990.00
2019-05-19T07:34:12.231Z,61075.23
2019-05-19T07:39:09.025Z,60990.36
2019-05-19T07:44:05.237Z,61125.09
2019-05-19T07:49:01.137Z,61186.22
2019-05-19T07:53:57.078Z,61219.49
2019-05-19T07:58:56.967Z,61369.84
2019-05-19T08:03:53.080Z,61238.27
2019-05-19T08:08:55.064Z,61508.63
2019-05-19T08:13:52.800Z,61764.21
2019-05-19T08:18:48.724Z,61850.87
2019-05-19T08:23:59.174Z,61534.77
2019-05-19T08:28:42.477Z,61766.46
2019-05-19T08:33:38.447Z,61910.48
2019-05-19T08:38:38.069Z,61752.95
2019-05-19T08:43:34.098Z,61794.25
2019-05-19T08:48:30.049Z,61897.72
2019-05-19T08:53:25.980Z,61976.11
2019-05-19T08:58:21.897Z,61855.67
2019-05-19T09:03:17.830Z,62001.02
2019-05-19T09:08:13.761Z,61814.11
2019-05-19T09:13:09.788Z,61867.19
2019-05-19T09:18:05.931Z,61955.64
2019-05-19T09:23:02.009Z,62017.71
2019-05-19T09:27:57.933Z,62035.13
2019-05-19T09:32:53.866Z,61844.75
2019-05-19T09:37:49.801Z,61960.16
2019-05-19T09:42:45.730Z,61934.03
2019-05-19T09:47:43.931Z,61988.96
2019-05-19T09:52:39.959Z,61975.58
2019-05-19T09:57:36.039Z,62050.59
2019-05-19T10:02:32.039Z,62052.57
2019-05-19T10:07:27.965Z,62219.09
2019-05-19T10:12:23.892Z,62245.13
2019-05-19T10:17:19.817Z,62363.64
2019-05-19T10:22:15.741Z,61939.72
2019-05-19T10:27:11.670Z,62184.48
2019-05-19T10:32:07.599Z,62282.30
2019-05-19T10:37:03.789Z,62373.34
2019-05-19T10:41:59.769Z,62371.50
2019-05-19T10:46:55.710Z,62086.24
2019-05-19T10:51:51.828Z,62209.92
2019-05-19T10:56:47.802Z,62345.83
2019-05-19T11:01:43.738Z,62571.64
2019-05-19T11:06:39.668Z,62629.26
2019-05-19T11:11:35.598Z,62572.89
2019-05-19T11:16:31.692Z,62487.17
2019-05-19T11:21:28.197Z,62087.25
2019-05-19T11:26:24.165Z,61920.80
2019-05-19T11:31:20.202Z,62433.83
2019-05-19T11:36:18.023Z,62708.50
2019-05-19T11:41:14.041Z,62814.10
2019-05-19T11:46:10.110Z,62949.83
2019-05-19T11:51:06.129Z,62241.73
2019-05-19T11:56:06.604Z,62795.49
2019-05-19T12:00:59.902Z,62686.89
2019-05-19T12:05:55.823Z,62593.14
2019-05-19T12:10:51.749Z,62763.87
2019-05-19T12:15:47.686Z,62660.93
2019-05-19T12:20:43.616Z,62924.32
2019-05-19T12:25:39.544Z,62841.57
2019-05-19T12:30:35.572Z,62858.75
2019-05-19T12:35:31.505Z,62851.22
2019-05-19T12:40:27.530Z,62859.59
2019-05-19T12:45:23.562Z,62761.70
2019-05-19T12:50:19.590Z,62490.62
2019-05-19T12:55:15.723Z,62731.97
2019-05-19T13:00:12.273Z,62836.70
2019-05-19T13:05:08.484Z,62735.11
2019-05-19T13:10:06.611Z,63079.46
2019-05-19T13:15:05.449Z,63272.67
2019-05-19T13:20:01.733Z,62877.78
2019-05-19T13:24:57.961Z,62476.85
2019-05-19T13:29:54.098Z,62163.46
2019-05-19T13:34:50.134Z,62435.16
2019-05-19T13:39:46.076Z,62822.33
2019-05-19T13:44:42.043Z,62611.18
2019-05-19T13:49:37.972Z,62617.04
2019-05-19T13:54:34.050Z,62414.85
2019-05-19T13:59:29.986Z,62501.88
2019-05-19T14:04:25.912Z,62633.79
2019-05-19T14:09:22.541Z,62721.50
2019-05-19T14:14:18.549Z,62272.97
2019-05-19T14:19:14.557Z,62498.41
2019-05-19T14:24:10.495Z,62435.16
2019-05-19T14:29:06.425Z,62458.32
2019-05-19T14:34:02.362Z,62354.67
2019-05-19T14:39:07.009Z,62398.70
2019-05-19T14:44:03.517Z,62398.57
2019-05-19T14:48:59.443Z,62398.37
2019-05-19T14:53:55.369Z,61849.91
2019-05-19T14:58:51.296Z,61525.31
2019-05-19T15:03:47.234Z,61325.23
2019-05-19T15:08:46.833Z,61327.68
2019-05-19T15:13:42.868Z,61183.92
2019-05-19T15:18:39.458Z,61124.87
2019-05-19T15:23:35.354Z,61179.80
2019-05-19T15:28:31.285Z,61375.46
2019-05-19T15:33:27.242Z,61287.05
2019-05-19T15:38:24.687Z,61289.24
2019-05-19T15:43:20.715Z,61273.79
2019-05-19T15:48:16.753Z,61252.07
2019-05-19T15:53:12.682Z,61266.77
2019-05-19T15:58:16.676Z,61152.09
2019-05-19T16:03:06.466Z,61256.41
2019-05-19T16:08:02.461Z,61178.25
2019-05-19T16:12:58.395Z,61219.30
2019-05-19T16:17:54.326Z,61107.67
2019-05-19T16:22:50.266Z,61140.53
2019-05-19T16:27:46.205Z,61197.02
2019-05-19T16:32:42.136Z,61334.96
2019-05-19T16:37:38.066Z,61276.27
2019-05-19T16:42:34.206Z,61188.72
2019-05-19T16:47:30.149Z,61312.75
2019-05-19T16:52:26.708Z,61283.70
2019-05-19T16:57:22.642Z,61252.32
2019-05-19T17:02:18.583Z,61268.97
2019-05-19T17:07:14.518Z,61332.68
2019-05-19T17:12:10.453Z,61377.55
2019-05-19T17:17:06.379Z,61484.52
2019-05-19T17:22:02.365Z,61481.21
2019-05-19T17:26:58.292Z,61556.36
2019-05-19T17:32:05.379Z,61588.95
2019-05-19T17:36:52.163Z,61599.15
2019-05-19T17:41:48.090Z,61557.27
2019-05-19T17:46:44.020Z,61569.55
2019-05-19T17:51:39.946Z,61521.32
2019-05-19T17:56:36.082Z,61671.43
2019-05-19T18:01:32.015Z,61520.79
2019-05-19T18:06:29.753Z,61322.27
2019-05-19T18:11:25.778Z,61160.29
2019-05-19T18:16:21.720Z,61161.36
2019-05-19T18:21:17.662Z,61153.87
2019-05-19T18:26:13.593Z,61123.55
2019-05-19T18:31:09.536Z,61203.88
2019-05-19T18:36:05.476Z,61086.37
2019-05-19T18:41:01.409Z,60994.00
2019-05-19T18:45:57.369Z,61041.37
2019-05-19T18:50:53.378Z,61023.79
2019-05-19T18:55:49.310Z,60935.11
2019-05-19T19:00:45.348Z,60908.43
2019-05-19T19:05:41.278Z,60940.87
2019-05-19T19:10:40.673Z,60943.51
2019-05-19T19:15:38.009Z,60876.50
2019-05-19T19:20:34.679Z,60858.49
2019-05-19T19:25:30.757Z,60845.99
2019-05-19T19:30:29.568Z,60758.88
2019-05-19T19:35:25.586Z,60735.89
2019-05-19T19:40:27.430Z,60758.29
2019-05-19T19:45:23.367Z,60763.35
2019-05-19T19:50:19.354Z,60689.37
2019-05-19T19:55:15.299Z,60731.23
2019-05-19T20:00:18.423Z,60650.68
2019-05-19T20:05:09.821Z,60513.37
2019-05-19T20:10:05.985Z,60557.70
2019-05-19T20:15:02.222Z,60632.13
2019-05-19T20:19:58.146Z,60543.79
2019-05-19T20:24:54.074Z,60510.31
2019-05-19T20:29:50.013Z,60501.45
2019-05-19T20:34:45.938Z,60532.06
2019-05-19T20:39:41.869Z,60491.52
2019-05-19T20:44:37.799Z,60415.16
2019-05-19T20:49:33.797Z,60427.61
2019-05-19T20:54:29.724Z,60403.61
2019-05-19T20:59:25.671Z,60402.29
2019-05-19T21:04:21.599Z,60361.91
2019-05-19T21:09:19.187Z,60374.23
2019-05-19T21:14:15.093Z,60373.40
2019-05-19T21:19:11.020Z,60369.80
2019-05-19T21:24:06.993Z,60493.83
2019-05-19T21:29:03.091Z,60384.97
2019-05-19T21:33:59.086Z,60372.42
2019-05-19T21:38:57.476Z,60312.62
2019-05-19T21:43:53.709Z,60339.11
2019-05-19T21:48:49.644Z,60289.84
2019-05-19T21:53:47.176Z,60277.82
2019-05-19T21:58:43.108Z,60216.06
2019-05-19T22:03:39.139Z,60174.84
2019-05-19T22:08:45.613Z,60203.56
2019-05-19T22:13:43.233Z,60273.09
2019-05-19T22:18:39.164Z,60146.87
2019-05-19T22:23:35.189Z,60216.19
2019-05-19T22:28:31.113Z,60161.48
2019-05-19T22:33:27.041Z,60185.90
2019-05-19T22:38:25.848Z,60122.84
2019-05-19T22:43:21.802Z,60069.28
2019-05-19T22:48:17.719Z,60062.48
2019-05-19T22:53:13.654Z,59981.47
2019-05-19T22:58:09.582Z,59970.69
2019-05-19T23:03:05.516Z,59956.32
2019-05-19T23:08:01.440Z,59895.96
2019-05-19T23:12:57.367Z,59930.11
2019-05-19T23:17:53.300Z,60012.44
2019-05-19T23:22:49.332Z,60035.40
2019-05-19T23:27:45.264Z,59992.69
2019-05-19T23:32:41.194Z,59960.73
2019-05-19T23:37:37.134Z,59930.82
2019-05-19T23:42:33.762Z,60011.03
2019-05-19T23:47:29.716Z,59917.37
2019-05-19T23:52:25.655Z,59870.64
2019-05-19T23:57:21.555Z,59826.45
